Toms River, NJ

3:54 PM EST on December 28, 2014 (GMT -0500)
Glenwood Estates | Change Station
CLOSE
Current Station
Personal Weather Station
Location: Toms River, NJ
Elevation: 66 ft
Nearby Weather Stations

Elev 66 ft 39.97 °N, 74.15 °W | Updated 11 seconds ago

Mostly Cloudy
Mostly Cloudy
53.8 °F
Feels Like 53.8 °F
N
1.1
Wind Variable Wind from WNW
Gusts 1.1 mph

Today
High -- | Low -- °F
--% Chance of Precip.
Yesterday
High -- | Low -- °F
Precip. -- in
7:17 AM 4:38 PM
Waxing Crescent, 51% visible
Pressure 29.93 in
Visibility 10.0 miles
Clouds Clear
Dew Point 43 °F
Humidity 66%
Rainfall 0.00 in
Snow Depth Not available.
UV 0 out of 12
Pollen .10 out of 12
Air Quality Not available.
Flu Activity Not available.
METAR KMJX 282035Z AUTO 00000KT 10SM CLR 12/07 A2993 RMK AO1

More Conditions Fewer Conditions

Pressure 29.93 in
Visibility 10.0 miles
Clouds Clear
Dew Point 43 °F
Humidity 66%
Rainfall 0.00 in
Snow Depth Not available.
UV 0 out of 12
Pollen .10 out of 12
Air Quality Not available.
Flu Activity Not available.
METAR KMJX 282035Z AUTO 00000KT 10SM CLR 12/07 A2993 RMK AO1

More Conditions Fewer Conditions

Nowcast | as of 1:45 PM EST on December 28, 2014

Scattered light showers and sprinkles will move east of Interstate 95 across Delaware, eastern Maryland, central and southern New Jersey during the mid afternoon. A trace of rainfall can generally be expected through 4 PM although localized amounts of up to a couple hundredths of an inch are possible.

×

10-Day Weather Forecast

Almanac

Astronomy

Dec. 28, 2014 Rise Set
Actual Time
Civil Twilight
Nautical Twilight
Astronomical Twilight
Moon
Length of Visible Light
Length of Day
Tomorrow will be .
, % of the Moon is Illuminated

Today's Extremes

State Highs State Lows

Community

WunderPhotos

Upload Photos

1,781,414 photos uploaded!

WunderBlogs® & News

Nearby

Air Quality

  Air Quality AQ Index Pollutant
Not available.

Snow Depth

Station Depth Elevation

Earthquake Activity

City Distance Mag. Time & Date
Minimum magnitude displayed is 2.5.

Coastal Water Temperatures

Place Temperature

Nearby Weather Stations